sensor_id;sensor_type;location;lat;lon;timestamp;P1;durP1;ratioP1;P2;durP2;ratioP2
8009;SDS011;4050;51.160;6.938;2022-07-01T00:01:20;5.13;;;3.10;;
8009;SDS011;4050;51.160;6.938;2022-07-01T00:03:48;3.23;;;2.50;;
8009;SDS011;4050;51.160;6.938;2022-07-01T00:06:16;3.20;;;2.50;;
8009;SDS011;4050;51.160;6.938;2022-07-01T00:08:44;4.33;;;2.90;;
8009;SDS011;4050;51.160;6.938;2022-07-01T00:11:12;5.70;;;3.17;;
8009;SDS011;4050;51.160;6.938;2022-07-01T00:13:40;3.23;;;2.57;;
8009;SDS011;4050;51.160;6.938;2022-07-01T00:16:10;5.67;;;3.40;;
8009;SDS011;4050;51.160;6.938;2022-07-01T00:18:38;4.17;;;2.83;;
8009;SDS011;4050;51.160;6.938;2022-07-01T00:21:06;5.00;;;3.20;;
8009;SDS011;4050;51.160;6.938;2022-07-01T00:23:39;4.63;;;2.87;;
8009;SDS011;4050;51.160;6.938;2022-07-01T00:26:08;5.03;;;3.27;;
8009;SDS011;4050;51.160;6.938;2022-07-01T00:28:35;4.10;;;3.23;;
8009;SDS011;4050;51.160;6.938;2022-07-01T00:31:03;5.67;;;3.60;;
8009;SDS011;4050;51.160;6.938;2022-07-01T00:33:33;5.13;;;3.13;;
8009;SDS011;4050;51.160;6.938;2022-07-01T00:36:01;5.10;;;2.70;;
8009;SDS011;4050;51.160;6.938;2022-07-01T00:38:28;4.20;;;3.40;;
8009;SDS011;4050;51.160;6.938;2022-07-01T00:40:56;4.70;;;3.57;;
8009;SDS011;4050;51.160;6.938;2022-07-01T00:43:25;6.17;;;3.20;;
8009;SDS011;4050;51.160;6.938;2022-07-01T00:46:13;6.20;;;3.33;;
8009;SDS011;4050;51.160;6.938;2022-07-01T00:48:49;5.20;;;3.63;;
8009;SDS011;4050;51.160;6.938;2022-07-01T00:51:17;6.40;;;3.40;;
8009;SDS011;4050;51.160;6.938;2022-07-01T00:53:46;6.73;;;3.83;;
8009;SDS011;4050;51.160;6.938;2022-07-01T00:56:14;5.40;;;3.57;;
8009;SDS011;4050;51.160;6.938;2022-07-01T00:58:42;6.33;;;3.67;;
8009;SDS011;4050;51.160;6.938;2022-07-01T01:01:10;5.90;;;3.57;;
8009;SDS011;4050;51.160;6.938;2022-07-01T01:03:38;4.60;;;2.90;;
8009;SDS011;4050;51.160;6.938;2022-07-01T01:06:07;6.57;;;3.57;;
8009;SDS011;4050;51.160;6.938;2022-07-01T01:08:36;5.63;;;3.87;;
8009;SDS011;4050;51.160;6.938;2022-07-01T01:11:04;6.37;;;3.30;;
8009;SDS011;4050;51.160;6.938;2022-07-01T01:13:33;5.47;;;3.27;;
8009;SDS011;4050;51.160;6.938;2022-07-01T01:16:01;4.17;;;3.40;;
8009;SDS011;4050;51.160;6.938;2022-07-01T01:18:29;5.17;;;3.33;;
8009;SDS011;4050;51.160;6.938;2022-07-01T01:20:58;5.17;;;2.83;;
8009;SDS011;4050;51.160;6.938;2022-07-01T01:23:26;6.20;;;3.10;;
8009;SDS011;4050;51.160;6.938;2022-07-01T01:25:54;6.03;;;3.07;;
8009;SDS011;4050;51.160;6.938;2022-07-01T01:28:23;5.10;;;3.00;;
8009;SDS011;4050;51.160;6.938;2022-07-01T01:30:52;5.13;;;3.00;;
8009;SDS011;4050;51.160;6.938;2022-07-01T01:33:20;5.30;;;2.80;;
8009;SDS011;4050;51.160;6.938;2022-07-01T01:35:48;4.90;;;2.60;;
8009;SDS011;4050;51.160;6.938;2022-07-01T01:38:17;6.20;;;3.47;;
8009;SDS011;4050;51.160;6.938;2022-07-01T01:40:45;5.23;;;2.73;;
8009;SDS011;4050;51.160;6.938;2022-07-01T01:43:12;2.97;;;2.57;;
8009;SDS011;4050;51.160;6.938;2022-07-01T01:45:42;8.00;;;2.93;;
8009;SDS011;4050;51.160;6.938;2022-07-01T01:48:10;3.87;;;2.47;;
8009;SDS011;4050;51.160;6.938;2022-07-01T01:50:37;7.17;;;3.30;;
8009;SDS011;4050;51.160;6.938;2022-07-01T01:53:05;4.73;;;3.00;;
8009;SDS011;4050;51.160;6.938;2022-07-01T01:55:35;5.40;;;3.63;;
8009;SDS011;4050;51.160;6.938;2022-07-01T01:58:02;7.63;;;3.40;;
8009;SDS011;4050;51.160;6.938;2022-07-01T02:00:30;5.60;;;3.00;;
8009;SDS011;4050;51.160;6.938;2022-07-01T02:02:58;4.97;;;3.03;;
8009;SDS011;4050;51.160;6.938;2022-07-01T02:05:26;4.43;;;3.33;;
8009;SDS011;4050;51.160;6.938;2022-07-01T02:07:54;5.73;;;3.90;;
8009;SDS011;4050;51.160;6.938;2022-07-01T02:10:22;4.53;;;3.03;;
8009;SDS011;4050;51.160;6.938;2022-07-01T02:12:51;5.47;;;3.87;;
8009;SDS011;4050;51.160;6.938;2022-07-01T02:15:19;5.37;;;3.30;;
8009;SDS011;4050;51.160;6.938;2022-07-01T02:17:47;5.67;;;3.53;;
8009;SDS011;4050;51.160;6.938;2022-07-01T02:20:14;10.57;;;4.80;;
8009;SDS011;4050;51.160;6.938;2022-07-01T02:22:42;6.90;;;3.37;;
8009;SDS011;4050;51.160;6.938;2022-07-01T02:25:10;6.53;;;3.30;;
8009;SDS011;4050;51.160;6.938;2022-07-01T02:27:38;11.90;;;3.90;;
8009;SDS011;4050;51.160;6.938;2022-07-01T02:30:08;3.90;;;2.70;;
8009;SDS011;4050;51.160;6.938;2022-07-01T02:32:36;5.47;;;2.90;;
8009;SDS011;4050;51.160;6.938;2022-07-01T02:35:04;6.57;;;3.60;;
8009;SDS011;4050;51.160;6.938;2022-07-01T02:37:32;6.80;;;2.90;;
8009;SDS011;4050;51.160;6.938;2022-07-01T02:40:00;4.80;;;2.90;;
8009;SDS011;4050;51.160;6.938;2022-07-01T02:42:29;4.13;;;2.57;;
8009;SDS011;4050;51.160;6.938;2022-07-01T02:45:01;5.00;;;2.97;;
8009;SDS011;4050;51.160;6.938;2022-07-01T02:47:31;9.00;;;3.17;;
8009;SDS011;4050;51.160;6.938;2022-07-01T02:50:00;4.83;;;3.17;;
8009;SDS011;4050;51.160;6.938;2022-07-01T02:52:28;5.47;;;3.70;;
8009;SDS011;4050;51.160;6.938;2022-07-01T02:54:56;6.10;;;2.87;;
8009;SDS011;4050;51.160;6.938;2022-07-01T02:57:24;5.93;;;3.13;;
8009;SDS011;4050;51.160;6.938;2022-07-01T02:59:52;6.10;;;3.27;;
8009;SDS011;4050;51.160;6.938;2022-07-01T03:02:20;9.87;;;3.50;;
8009;SDS011;4050;51.160;6.938;2022-07-01T03:04:51;4.30;;;2.70;;
8009;SDS011;4050;51.160;6.938;2022-07-01T03:07:20;4.37;;;3.27;;
8009;SDS011;4050;51.160;6.938;2022-07-01T03:09:48;6.30;;;3.43;;
8009;SDS011;4050;51.160;6.938;2022-07-01T03:12:16;5.30;;;3.03;;
8009;SDS011;4050;51.160;6.938;2022-07-01T03:14:55;4.57;;;3.03;;
8009;SDS011;4050;51.160;6.938;2022-07-01T03:17:23;6.67;;;3.77;;
8009;SDS011;4050;51.160;6.938;2022-07-01T03:19:53;5.30;;;3.33;;
8009;SDS011;4050;51.160;6.938;2022-07-01T03:22:22;5.20;;;2.60;;
8009;SDS011;4050;51.160;6.938;2022-07-01T03:24:51;4.03;;;2.47;;
8009;SDS011;4050;51.160;6.938;2022-07-01T03:27:19;3.47;;;2.57;;
8009;SDS011;4050;51.160;6.938;2022-07-01T03:29:48;5.57;;;2.70;;
8009;SDS011;4050;51.160;6.938;2022-07-01T03:32:16;3.93;;;2.43;;
8009;SDS011;4050;51.160;6.938;2022-07-01T03:34:45;3.13;;;2.20;;
8009;SDS011;4050;51.160;6.938;2022-07-01T03:37:16;2.80;;;2.10;;
8009;SDS011;4050;51.160;6.938;2022-07-01T03:39:45;5.80;;;2.13;;
8009;SDS011;4050;51.160;6.938;2022-07-01T03:42:13;3.23;;;2.07;;
8009;SDS011;4050;51.160;6.938;2022-07-01T03:44:41;3.07;;;2.33;;
8009;SDS011;4050;51.160;6.938;2022-07-01T03:47:10;3.90;;;2.13;;
8009;SDS011;4050;51.160;6.938;2022-07-01T03:49:38;3.90;;;2.10;;
8009;SDS011;4050;51.160;6.938;2022-07-01T03:52:06;3.47;;;2.30;;
8009;SDS011;4050;51.160;6.938;2022-07-01T03:54:35;4.67;;;2.30;;
8009;SDS011;4050;51.160;6.938;2022-07-01T03:57:06;3.03;;;1.67;;
8009;SDS011;4050;51.160;6.938;2022-07-01T03:59:35;4.93;;;2.03;;
8009;SDS011;4050;51.160;6.938;2022-07-01T04:02:04;2.90;;;1.67;;
8009;SDS011;4050;51.160;6.938;2022-07-01T04:04:34;2.30;;;1.63;;
8009;SDS011;4050;51.160;6.938;2022-07-01T04:07:04;1.63;;;1.43;;
8009;SDS011;4050;51.160;6.938;2022-07-01T04:09:35;4.27;;;1.60;;
8009;SDS011;4050;51.160;6.938;2022-07-01T04:12:03;1.60;;;1.50;;
8009;SDS011;4050;51.160;6.938;2022-07-01T04:14:33;2.53;;;1.33;;
8009;SDS011;4050;51.160;6.938;2022-07-01T04:17:03;1.80;;;1.60;;
8009;SDS011;4050;51.160;6.938;2022-07-01T04:19:31;1.60;;;1.30;;
8009;SDS011;4050;51.160;6.938;2022-07-01T04:21:59;3.87;;;1.50;;
8009;SDS011;4050;51.160;6.938;2022-07-01T04:24:46;3.57;;;1.27;;
8009;SDS011;4050;51.160;6.938;2022-07-01T04:27:15;1.70;;;1.47;;
8009;SDS011;4050;51.160;6.938;2022-07-01T04:29:43;3.23;;;1.70;;
8009;SDS011;4050;51.160;6.938;2022-07-01T04:32:10;3.07;;;1.73;;
8009;SDS011;4050;51.160;6.938;2022-07-01T04:34:38;1.87;;;1.40;;
8009;SDS011;4050;51.160;6.938;2022-07-01T04:37:07;1.67;;;1.53;;
8009;SDS011;4050;51.160;6.938;2022-07-01T04:39:35;1.97;;;1.40;;
8009;SDS011;4050;51.160;6.938;2022-07-01T04:42:04;1.80;;;1.53;;
8009;SDS011;4050;51.160;6.938;2022-07-01T04:44:33;2.03;;;1.57;;
8009;SDS011;4050;51.160;6.938;2022-07-01T04:47:09;3.33;;;1.40;;
8009;SDS011;4050;51.160;6.938;2022-07-01T04:49:37;7.03;;;1.40;;
8009;SDS011;4050;51.160;6.938;2022-07-01T04:52:05;1.57;;;1.37;;
8009;SDS011;4050;51.160;6.938;2022-07-01T04:54:33;1.00;;;0.90;;
8009;SDS011;4050;51.160;6.938;2022-07-01T04:57:02;3.00;;;1.30;;
8009;SDS011;4050;51.160;6.938;2022-07-01T04:59:32;3.00;;;0.97;;
8009;SDS011;4050;51.160;6.938;2022-07-01T05:02:00;1.40;;;1.23;;
8009;SDS011;4050;51.160;6.938;2022-07-01T05:04:28;1.60;;;1.37;;
8009;SDS011;4050;51.160;6.938;2022-07-01T05:06:55;3.87;;;1.43;;
8009;SDS011;4050;51.160;6.938;2022-07-01T05:09:23;1.30;;;1.10;;
8009;SDS011;4050;51.160;6.938;2022-07-01T05:11:52;1.43;;;1.27;;
8009;SDS011;4050;51.160;6.938;2022-07-01T05:14:21;3.17;;;1.70;;
8009;SDS011;4050;51.160;6.938;2022-07-01T05:16:49;3.57;;;1.20;;
8009;SDS011;4050;51.160;6.938;2022-07-01T05:19:17;4.63;;;1.13;;
8009;SDS011;4050;51.160;6.938;2022-07-01T05:22:11;1.13;;;1.03;;
8009;SDS011;4050;51.160;6.938;2022-07-01T05:24:39;5.87;;;1.40;;
8009;SDS011;4050;51.160;6.938;2022-07-01T05:27:07;4.07;;;1.40;;
8009;SDS011;4050;51.160;6.938;2022-07-01T05:29:36;3.53;;;1.30;;
8009;SDS011;4050;51.160;6.938;2022-07-01T05:32:04;3.00;;;1.47;;
8009;SDS011;4050;51.160;6.938;2022-07-01T05:34:33;2.27;;;1.33;;
8009;SDS011;4050;51.160;6.938;2022-07-01T05:37:02;1.30;;;1.20;;
8009;SDS011;4050;51.160;6.938;2022-07-01T05:39:30;1.77;;;1.20;;
8009;SDS011;4050;51.160;6.938;2022-07-01T05:41:58;1.30;;;1.03;;
8009;SDS011;4050;51.160;6.938;2022-07-01T05:44:26;2.97;;;1.00;;
8009;SDS011;4050;51.160;6.938;2022-07-01T05:46:55;3.67;;;1.20;;
8009;SDS011;4050;51.160;6.938;2022-07-01T05:49:23;1.20;;;0.97;;
8009;SDS011;4050;51.160;6.938;2022-07-01T05:51:51;2.63;;;1.20;;
8009;SDS011;4050;51.160;6.938;2022-07-01T05:54:19;2.63;;;1.20;;
8009;SDS011;4050;51.160;6.938;2022-07-01T05:56:47;2.90;;;1.20;;
8009;SDS011;4050;51.160;6.938;2022-07-01T05:59:15;3.00;;;1.23;;
8009;SDS011;4050;51.160;6.938;2022-07-01T06:01:43;2.00;;;1.20;;
8009;SDS011;4050;51.160;6.938;2022-07-01T06:04:13;1.57;;;1.10;;
8009;SDS011;4050;51.160;6.938;2022-07-01T06:06:41;2.93;;;1.13;;
8009;SDS011;4050;51.160;6.938;2022-07-01T06:09:09;1.33;;;1.17;;
8009;SDS011;4050;51.160;6.938;2022-07-01T06:11:37;2.03;;;1.00;;
8009;SDS011;4050;51.160;6.938;2022-07-01T06:14:05;2.87;;;1.30;;
8009;SDS011;4050;51.160;6.938;2022-07-01T06:16:34;2.00;;;1.30;;
8009;SDS011;4050;51.160;6.938;2022-07-01T06:19:02;3.70;;;1.40;;
8009;SDS011;4050;51.160;6.938;2022-07-01T06:21:33;5.50;;;1.33;;
8009;SDS011;4050;51.160;6.938;2022-07-01T06:24:01;2.03;;;1.70;;
8009;SDS011;4050;51.160;6.938;2022-07-01T06:26:29;4.07;;;1.50;;
8009;SDS011;4050;51.160;6.938;2022-07-01T06:28:57;2.93;;;1.60;;
8009;SDS011;4050;51.160;6.938;2022-07-01T06:31:25;1.70;;;0.90;;
8009;SDS011;4050;51.160;6.938;2022-07-01T06:33:53;1.70;;;1.20;;
8009;SDS011;4050;51.160;6.938;2022-07-01T06:36:21;1.83;;;1.10;;
8009;SDS011;4050;51.160;6.938;2022-07-01T06:38:50;1.40;;;1.30;;
8009;SDS011;4050;51.160;6.938;2022-07-01T06:41:18;2.73;;;1.50;;
8009;SDS011;4050;51.160;6.938;2022-07-01T06:43:55;3.27;;;1.33;;
8009;SDS011;4050;51.160;6.938;2022-07-01T06:46:24;1.30;;;1.20;;
8009;SDS011;4050;51.160;6.938;2022-07-01T06:48:53;1.77;;;1.00;;
8009;SDS011;4050;51.160;6.938;2022-07-01T06:51:22;2.20;;;1.30;;
8009;SDS011;4050;51.160;6.938;2022-07-01T06:53:51;5.03;;;1.70;;
8009;SDS011;4050;51.160;6.938;2022-07-01T06:56:19;1.43;;;1.03;;
8009;SDS011;4050;51.160;6.938;2022-07-01T06:58:47;1.77;;;1.20;;
8009;SDS011;4050;51.160;6.938;2022-07-01T07:01:15;1.73;;;1.43;;
8009;SDS011;4050;51.160;6.938;2022-07-01T07:03:43;2.03;;;1.47;;
8009;SDS011;4050;51.160;6.938;2022-07-01T07:06:11;1.60;;;1.20;;
8009;SDS011;4050;51.160;6.938;2022-07-01T07:08:39;1.43;;;1.30;;
8009;SDS011;4050;51.160;6.938;2022-07-01T07:11:08;1.37;;;1.13;;
8009;SDS011;4050;51.160;6.938;2022-07-01T07:13:36;5.10;;;1.60;;
8009;SDS011;4050;51.160;6.938;2022-07-01T07:16:04;1.13;;;1.00;;
8009;SDS011;4050;51.160;6.938;2022-07-01T07:18:32;1.10;;;1.00;;
8009;SDS011;4050;51.160;6.938;2022-07-01T07:21:00;1.73;;;1.20;;
8009;SDS011;4050;51.160;6.938;2022-07-01T07:23:29;3.70;;;1.47;;
8009;SDS011;4050;51.160;6.938;2022-07-01T07:25:57;1.47;;;1.00;;
8009;SDS011;4050;51.160;6.938;2022-07-01T07:28:26;2.33;;;1.50;;
8009;SDS011;4050;51.160;6.938;2022-07-01T07:30:54;2.03;;;1.33;;
8009;SDS011;4050;51.160;6.938;2022-07-01T07:33:22;1.80;;;1.40;;
8009;SDS011;4050;51.160;6.938;2022-07-01T07:35:49;1.40;;;1.23;;
8009;SDS011;4050;51.160;6.938;2022-07-01T07:38:18;1.60;;;1.40;;
8009;SDS011;4050;51.160;6.938;2022-07-01T07:40:46;1.10;;;1.00;;
8009;SDS011;4050;51.160;6.938;2022-07-01T07:43:14;2.03;;;1.10;;
8009;SDS011;4050;51.160;6.938;2022-07-01T07:45:43;2.43;;;1.60;;
8009;SDS011;4050;51.160;6.938;2022-07-01T07:48:11;2.40;;;1.40;;
8009;SDS011;4050;51.160;6.938;2022-07-01T07:50:39;1.50;;;1.40;;
8009;SDS011;4050;51.160;6.938;2022-07-01T07:53:07;1.33;;;1.03;;
8009;SDS011;4050;51.160;6.938;2022-07-01T07:55:36;1.40;;;1.27;;
8009;SDS011;4050;51.160;6.938;2022-07-01T07:58:04;2.10;;;1.17;;
8009;SDS011;4050;51.160;6.938;2022-07-01T08:00:32;1.10;;;1.00;;
8009;SDS011;4050;51.160;6.938;2022-07-01T08:03:06;1.43;;;1.00;;
8009;SDS011;4050;51.160;6.938;2022-07-01T08:05:34;2.03;;;1.10;;
8009;SDS011;4050;51.160;6.938;2022-07-01T08:08:03;2.17;;;1.20;;
8009;SDS011;4050;51.160;6.938;2022-07-01T08:10:31;2.35;;;1.00;;
8009;SDS011;4050;51.160;6.938;2022-07-01T08:12:59;1.77;;;0.90;;
8009;SDS011;4050;51.160;6.938;2022-07-01T08:15:30;0.73;;;0.70;;
8009;SDS011;4050;51.160;6.938;2022-07-01T08:17:58;1.20;;;0.73;;
8009;SDS011;4050;51.160;6.938;2022-07-01T08:20:28;1.48;;;0.75;;
8009;SDS011;4050;51.160;6.938;2022-07-01T08:22:55;0.73;;;0.52;;
8009;SDS011;4050;51.160;6.938;2022-07-01T08:25:23;1.60;;;0.80;;
8009;SDS011;4050;51.160;6.938;2022-07-01T08:27:55;1.45;;;0.88;;
8009;SDS011;4050;51.160;6.938;2022-07-01T08:30:23;1.13;;;0.98;;
8009;SDS011;4050;51.160;6.938;2022-07-01T08:32:51;1.95;;;0.68;;
8009;SDS011;4050;51.160;6.938;2022-07-01T08:35:19;0.80;;;0.60;;
8009;SDS011;4050;51.160;6.938;2022-07-01T08:37:49;0.73;;;0.60;;
8009;SDS011;4050;51.160;6.938;2022-07-01T08:40:16;1.33;;;0.70;;
8009;SDS011;4050;51.160;6.938;2022-07-01T08:42:45;0.80;;;0.80;;
8009;SDS011;4050;51.160;6.938;2022-07-01T08:45:13;0.75;;;0.68;;
8009;SDS011;4050;51.160;6.938;2022-07-01T08:47:50;2.20;;;0.63;;
8009;SDS011;4050;51.160;6.938;2022-07-01T08:50:18;0.75;;;0.65;;
8009;SDS011;4050;51.160;6.938;2022-07-01T08:52:50;1.38;;;1.02;;
8009;SDS011;4050;51.160;6.938;2022-07-01T08:55:18;2.88;;;0.93;;
8009;SDS011;4050;51.160;6.938;2022-07-01T08:57:46;1.20;;;0.73;;
8009;SDS011;4050;51.160;6.938;2022-07-01T09:00:15;2.33;;;0.88;;
8009;SDS011;4050;51.160;6.938;2022-07-01T09:02:50;1.02;;;0.75;;
8009;SDS011;4050;51.160;6.938;2022-07-01T09:05:20;1.88;;;0.70;;
8009;SDS011;4050;51.160;6.938;2022-07-01T09:07:54;2.28;;;1.10;;
8009;SDS011;4050;51.160;6.938;2022-07-01T09:10:24;0.82;;;0.80;;
8009;SDS011;4050;51.160;6.938;2022-07-01T09:12:52;2.00;;;0.63;;
8009;SDS011;4050;51.160;6.938;2022-07-01T09:15:21;1.83;;;0.90;;
8009;SDS011;4050;51.160;6.938;2022-07-01T09:17:52;2.92;;;0.98;;
8009;SDS011;4050;51.160;6.938;2022-07-01T09:20:25;1.88;;;0.60;;
8009;SDS011;4050;51.160;6.938;2022-07-01T09:23:02;3.88;;;0.90;;
8009;SDS011;4050;51.160;6.938;2022-07-01T09:25:33;1.75;;;0.60;;
8009;SDS011;4050;51.160;6.938;2022-07-01T09:28:17;2.47;;;0.82;;
8009;SDS011;4050;51.160;6.938;2022-07-01T09:30:47;1.25;;;0.93;;
8009;SDS011;4050;51.160;6.938;2022-07-01T09:33:17;1.92;;;1.00;;
8009;SDS011;4050;51.160;6.938;2022-07-01T09:35:47;1.80;;;0.90;;
8009;SDS011;4050;51.160;6.938;2022-07-01T09:38:18;1.52;;;0.88;;
8009;SDS011;4050;51.160;6.938;2022-07-01T09:40:58;2.13;;;1.27;;
8009;SDS011;4050;51.160;6.938;2022-07-01T09:43:27;0.82;;;0.80;;
8009;SDS011;4050;51.160;6.938;2022-07-01T09:45:57;0.98;;;0.52;;
8009;SDS011;4050;51.160;6.938;2022-07-01T09:48:27;1.13;;;0.77;;
8009;SDS011;4050;51.160;6.938;2022-07-01T09:51:10;0.98;;;0.70;;
8009;SDS011;4050;51.160;6.938;2022-07-01T09:53:42;1.30;;;0.43;;
8009;SDS011;4050;51.160;6.938;2022-07-01T09:56:10;0.70;;;0.52;;
8009;SDS011;4050;51.160;6.938;2022-07-01T09:58:38;1.33;;;0.52;;
8009;SDS011;4050;51.160;6.938;2022-07-01T10:01:09;0.95;;;0.40;;
8009;SDS011;4050;51.160;6.938;2022-07-01T10:03:37;0.95;;;0.40;;
8009;SDS011;4050;51.160;6.938;2022-07-01T10:06:18;0.63;;;0.50;;
8009;SDS011;4050;51.160;6.938;2022-07-01T10:09:11;0.73;;;0.43;;
8009;SDS011;4050;51.160;6.938;2022-07-01T10:11:58;0.90;;;0.77;;
8009;SDS011;4050;51.160;6.938;2022-07-01T10:14:37;0.20;;;0.20;;
8009;SDS011;4050;51.160;6.938;2022-07-01T10:17:07;0.50;;;0.40;;
8009;SDS011;4050;51.160;6.938;2022-07-01T10:19:35;0.82;;;0.40;;
8009;SDS011;4050;51.160;6.938;2022-07-01T10:24:54;1.13;;;0.68;;
8009;SDS011;4050;51.160;6.938;2022-07-01T10:27:22;2.42;;;0.55;;
8009;SDS011;4050;51.160;6.938;2022-07-01T10:32:41;0.60;;;0.55;;
8009;SDS011;4050;51.160;6.938;2022-07-01T10:35:35;0.47;;;0.40;;
8009;SDS011;4050;51.160;6.938;2022-07-01T10:38:04;1.73;;;0.63;;
8009;SDS011;4050;51.160;6.938;2022-07-01T10:40:46;0.60;;;0.50;;
8009;SDS011;4050;51.160;6.938;2022-07-01T10:43:15;0.40;;;0.40;;
8009;SDS011;4050;51.160;6.938;2022-07-01T10:45:57;0.70;;;0.47;;
8009;SDS011;4050;51.160;6.938;2022-07-01T10:48:25;0.40;;;0.40;;
8009;SDS011;4050;51.160;6.938;2022-07-01T10:50:53;0.50;;;0.47;;
8009;SDS011;4050;51.160;6.938;2022-07-01T10:53:21;0.70;;;0.40;;
8009;SDS011;4050;51.160;6.938;2022-07-01T10:55:51;0.65;;;0.20;;
8009;SDS011;4050;51.160;6.938;2022-07-01T10:58:34;1.63;;;0.63;;
8009;SDS011;4050;51.160;6.938;2022-07-01T11:01:03;1.13;;;0.55;;
8009;SDS011;4050;51.160;6.938;2022-07-01T11:03:33;0.40;;;0.40;;
8009;SDS011;4050;51.160;6.938;2022-07-01T11:06:02;0.43;;;0.40;;
8009;SDS011;4050;51.160;6.938;2022-07-01T11:08:30;0.95;;;0.43;;
8009;SDS011;4050;51.160;6.938;2022-07-01T11:11:00;0.77;;;0.30;;
8009;SDS011;4050;51.160;6.938;2022-07-01T11:13:31;1.25;;;0.52;;
8009;SDS011;4050;51.160;6.938;2022-07-01T11:15:59;0.40;;;0.28;;
8009;SDS011;4050;51.160;6.938;2022-07-01T11:18:28;0.28;;;0.28;;
8009;SDS011;4050;51.160;6.938;2022-07-01T11:21:04;1.42;;;0.63;;
8009;SDS011;4050;51.160;6.938;2022-07-01T11:23:33;0.30;;;0.30;;
8009;SDS011;4050;51.160;6.938;2022-07-01T11:26:08;1.67;;;0.50;;
8009;SDS011;4050;51.160;6.938;2022-07-01T11:28:50;0.32;;;0.32;;
8009;SDS011;4050;51.160;6.938;2022-07-01T11:31:30;2.13;;;0.50;;
8009;SDS011;4050;51.160;6.938;2022-07-01T11:33:59;0.65;;;0.40;;
8009;SDS011;4050;51.160;6.938;2022-07-01T11:36:27;1.90;;;0.88;;
8009;SDS011;4050;51.160;6.938;2022-07-01T11:39:13;0.80;;;0.30;;
8009;SDS011;4050;51.160;6.938;2022-07-01T11:41:55;0.45;;;0.30;;
8009;SDS011;4050;51.160;6.938;2022-07-01T11:44:31;0.47;;;0.28;;
8009;SDS011;4050;51.160;6.938;2022-07-01T11:49:28;1.02;;;0.50;;
8009;SDS011;4050;51.160;6.938;2022-07-01T11:51:57;0.70;;;0.35;;
8009;SDS011;4050;51.160;6.938;2022-07-01T11:54:27;0.98;;;0.47;;
8009;SDS011;4050;51.160;6.938;2022-07-01T11:57:08;0.60;;;0.30;;
8009;SDS011;4050;51.160;6.938;2022-07-01T11:59:36;0.60;;;0.40;;
8009;SDS011;4050;51.160;6.938;2022-07-01T12:02:07;0.20;;;0.20;;
8009;SDS011;4050;51.160;6.938;2022-07-01T12:04:37;0.95;;;0.30;;
8009;SDS011;4050;51.160;6.938;2022-07-01T12:07:06;1.88;;;0.30;;
8009;SDS011;4050;51.160;6.938;2022-07-01T12:09:35;0.30;;;0.30;;
8009;SDS011;4050;51.160;6.938;2022-07-01T12:12:03;0.28;;;0.20;;
8009;SDS011;4050;51.160;6.938;2022-07-01T12:14:35;0.45;;;0.17;;
8009;SDS011;4050;51.160;6.938;2022-07-01T12:17:04;1.92;;;0.55;;
8009;SDS011;4050;51.160;6.938;2022-07-01T12:19:37;0.68;;;0.50;;
8009;SDS011;4050;51.160;6.938;2022-07-01T12:22:07;0.68;;;0.20;;
8009;SDS011;4050;51.160;6.938;2022-07-01T12:24:36;0.45;;;0.45;;
8009;SDS011;4050;51.160;6.938;2022-07-01T12:27:05;0.20;;;0.20;;
8009;SDS011;4050;51.160;6.938;2022-07-01T12:29:49;1.08;;;0.40;;
8009;SDS011;4050;51.160;6.938;2022-07-01T12:32:19;0.47;;;0.20;;
8009;SDS011;4050;51.160;6.938;2022-07-01T12:34:51;1.08;;;0.40;;
8009;SDS011;4050;51.160;6.938;2022-07-01T12:37:27;0.75;;;0.30;;
8009;SDS011;4050;51.160;6.938;2022-07-01T12:39:57;1.35;;;0.28;;
8009;SDS011;4050;51.160;6.938;2022-07-01T12:42:26;0.35;;;0.30;;
8009;SDS011;4050;51.160;6.938;2022-07-01T12:45:02;0.80;;;0.30;;
8009;SDS011;4050;51.160;6.938;2022-07-01T12:47:32;0.32;;;0.20;;
8009;SDS011;4050;51.160;6.938;2022-07-01T12:50:07;0.28;;;0.28;;
8009;SDS011;4050;51.160;6.938;2022-07-01T12:52:36;0.65;;;0.20;;
8009;SDS011;4050;51.160;6.938;2022-07-01T12:55:12;0.20;;;0.20;;
8009;SDS011;4050;51.160;6.938;2022-07-01T12:57:42;1.55;;;0.40;;
8009;SDS011;4050;51.160;6.938;2022-07-01T13:00:11;1.25;;;0.40;;
8009;SDS011;4050;51.160;6.938;2022-07-01T13:02:40;0.65;;;0.65;;
8009;SDS011;4050;51.160;6.938;2022-07-01T13:05:08;1.55;;;0.55;;
8009;SDS011;4050;51.160;6.938;2022-07-01T13:07:36;0.38;;;0.25;;
8009;SDS011;4050;51.160;6.938;2022-07-01T13:10:10;0.57;;;0.30;;
8009;SDS011;4050;51.160;6.938;2022-07-01T13:12:38;0.43;;;0.20;;
8009;SDS011;4050;51.160;6.938;2022-07-01T13:15:06;0.57;;;0.20;;
8009;SDS011;4050;51.160;6.938;2022-07-01T13:17:36;0.10;;;0.10;;
8009;SDS011;4050;51.160;6.938;2022-07-01T13:20:05;1.20;;;0.47;;
8009;SDS011;4050;51.160;6.938;2022-07-01T13:22:34;2.13;;;0.40;;
8009;SDS011;4050;51.160;6.938;2022-07-01T13:25:03;0.22;;;0.22;;
8009;SDS011;4050;51.160;6.938;2022-07-01T13:27:31;0.30;;;0.30;;
8009;SDS011;4050;51.160;6.938;2022-07-01T13:29:59;0.67;;;0.40;;
8009;SDS011;4050;51.160;6.938;2022-07-01T13:32:29;6.43;;;5.82;;
8009;SDS011;4050;51.160;6.938;2022-07-01T13:34:58;0.30;;;0.30;;
8009;SDS011;4050;51.160;6.938;2022-07-01T13:37:26;0.28;;;0.20;;
8009;SDS011;4050;51.160;6.938;2022-07-01T13:39:54;0.30;;;0.30;;
8009;SDS011;4050;51.160;6.938;2022-07-01T13:42:22;0.77;;;0.20;;
8009;SDS011;4050;51.160;6.938;2022-07-01T13:44:50;1.63;;;0.30;;
8009;SDS011;4050;51.160;6.938;2022-07-01T13:47:18;0.20;;;0.20;;
8009;SDS011;4050;51.160;6.938;2022-07-01T13:49:46;0.40;;;0.23;;
8009;SDS011;4050;51.160;6.938;2022-07-01T13:52:15;0.50;;;0.30;;
8009;SDS011;4050;51.160;6.938;2022-07-01T13:54:43;0.20;;;0.20;;
8009;SDS011;4050;51.160;6.938;2022-07-01T13:57:11;1.40;;;0.73;;
8009;SDS011;4050;51.160;6.938;2022-07-01T13:59:39;0.87;;;0.60;;
8009;SDS011;4050;51.160;6.938;2022-07-01T14:02:08;0.53;;;0.10;;
8009;SDS011;4050;51.160;6.938;2022-07-01T14:04:36;0.23;;;0.20;;
8009;SDS011;4050;51.160;6.938;2022-07-01T14:07:05;0.50;;;0.40;;
8009;SDS011;4050;51.160;6.938;2022-07-01T14:09:34;0.90;;;0.40;;
8009;SDS011;4050;51.160;6.938;2022-07-01T14:12:03;0.20;;;0.20;;
8009;SDS011;4050;51.160;6.938;2022-07-01T14:14:38;1.47;;;0.30;;
8009;SDS011;4050;51.160;6.938;2022-07-01T14:17:06;0.60;;;0.37;;
8009;SDS011;4050;51.160;6.938;2022-07-01T14:19:33;0.67;;;0.40;;
8009;SDS011;4050;51.160;6.938;2022-07-01T14:22:02;0.63;;;0.30;;
8009;SDS011;4050;51.160;6.938;2022-07-01T14:24:30;1.40;;;0.30;;
8009;SDS011;4050;51.160;6.938;2022-07-01T14:26:59;0.10;;;0.10;;
8009;SDS011;4050;51.160;6.938;2022-07-01T14:29:27;0.80;;;0.20;;
8009;SDS011;4050;51.160;6.938;2022-07-01T14:31:55;1.23;;;0.40;;
8009;SDS011;4050;51.160;6.938;2022-07-01T14:34:25;0.47;;;0.30;;
8009;SDS011;4050;51.160;6.938;2022-07-01T14:36:53;0.27;;;0.27;;
8009;SDS011;4050;51.160;6.938;2022-07-01T14:39:21;0.30;;;0.23;;
8009;SDS011;4050;51.160;6.938;2022-07-01T14:41:49;1.40;;;0.50;;
8009;SDS011;4050;51.160;6.938;2022-07-01T14:44:23;0.63;;;0.50;;
8009;SDS011;4050;51.160;6.938;2022-07-01T14:46:51;1.30;;;0.30;;
8009;SDS011;4050;51.160;6.938;2022-07-01T14:49:19;1.23;;;0.40;;
8009;SDS011;4050;51.160;6.938;2022-07-01T14:51:49;0.20;;;0.20;;
8009;SDS011;4050;51.160;6.938;2022-07-01T14:54:17;0.70;;;0.40;;
8009;SDS011;4050;51.160;6.938;2022-07-01T14:56:45;1.40;;;1.23;;
8009;SDS011;4050;51.160;6.938;2022-07-01T14:59:13;2.57;;;0.33;;
8009;SDS011;4050;51.160;6.938;2022-07-01T15:01:42;0.57;;;0.37;;
8009;SDS011;4050;51.160;6.938;2022-07-01T15:04:10;0.20;;;0.20;;
8009;SDS011;4050;51.160;6.938;2022-07-01T15:06:38;0.30;;;0.30;;
8009;SDS011;4050;51.160;6.938;2022-07-01T15:09:06;2.10;;;0.40;;
8009;SDS011;4050;51.160;6.938;2022-07-01T15:11:33;2.10;;;0.30;;
8009;SDS011;4050;51.160;6.938;2022-07-01T15:14:01;0.40;;;0.40;;
8009;SDS011;4050;51.160;6.938;2022-07-01T15:16:29;0.17;;;0.17;;
8009;SDS011;4050;51.160;6.938;2022-07-01T15:18:59;0.83;;;0.20;;
8009;SDS011;4050;51.160;6.938;2022-07-01T15:21:27;0.90;;;0.50;;
8009;SDS011;4050;51.160;6.938;2022-07-01T15:23:55;0.30;;;0.30;;
8009;SDS011;4050;51.160;6.938;2022-07-01T15:26:23;0.57;;;0.40;;
8009;SDS011;4050;51.160;6.938;2022-07-01T15:28:51;1.03;;;0.77;;
8009;SDS011;4050;51.160;6.938;2022-07-01T15:31:21;2.10;;;0.57;;
8009;SDS011;4050;51.160;6.938;2022-07-01T15:34:10;0.97;;;0.20;;
8009;SDS011;4050;51.160;6.938;2022-07-01T15:36:39;0.90;;;0.20;;
8009;SDS011;4050;51.160;6.938;2022-07-01T15:39:07;0.33;;;0.30;;